createdAt,value
2022-08-29T00:00:17.854Z,6.52
2022-08-29T00:05:17.901Z,7.79
2022-08-29T00:10:24.196Z,6.78
2022-08-29T00:15:30.452Z,8.24
2022-08-29T00:20:36.813Z,6.85
2022-08-29T00:25:43.080Z,6.43
2022-08-29T00:30:49.361Z,7.74
2022-08-29T00:35:55.517Z,7.57
2022-08-29T00:41:01.380Z,8.82
2022-08-29T00:46:07.643Z,6.70
2022-08-29T00:51:13.924Z,7.97
2022-08-29T00:56:19.556Z,7.53
2022-08-29T01:01:26.033Z,7.92
2022-08-29T01:06:32.240Z,7.22
2022-08-29T01:11:38.500Z,7.28
2022-08-29T01:16:44.647Z,9.18
2022-08-29T01:21:50.913Z,8.02
2022-08-29T01:26:57.048Z,9.62
2022-08-29T01:32:03.359Z,7.16
2022-08-29T01:37:09.376Z,6.48
2022-08-29T01:42:15.598Z,6.49
2022-08-29T01:47:21.771Z,6.46
2022-08-29T01:52:28.022Z,6.82
2022-08-29T01:57:34.171Z,6.48
2022-08-29T02:02:40.954Z,7.83
2022-08-29T02:07:46.293Z,7.25
2022-08-29T02:12:52.942Z,9.37
2022-08-29T02:17:59.125Z,7.40
2022-08-29T02:23:13.593Z,8.44
2022-08-29T02:28:11.186Z,8.22
2022-08-29T02:33:17.585Z,7.75
2022-08-29T02:38:23.321Z,8.49
2022-08-29T02:43:29.526Z,8.37
2022-08-29T02:48:35.659Z,8.31
2022-08-29T02:53:41.976Z,8.40
2022-08-29T02:58:47.771Z,8.77
2022-08-29T03:03:54.005Z,7.18
2022-08-29T03:09:00.175Z,9.55
2022-08-29T03:14:06.715Z,7.95
2022-08-29T03:19:12.851Z,6.97
2022-08-29T03:24:26.230Z,6.65
2022-08-29T03:29:25.023Z,6.98
2022-08-29T03:34:31.352Z,8.53
2022-08-29T03:39:37.533Z,7.03
2022-08-29T03:44:43.733Z,6.28
2022-08-29T03:49:49.829Z,7.75
2022-08-29T03:54:56.144Z,8.08
2022-08-29T04:00:01.870Z,7.85
2022-08-29T04:05:08.551Z,8.70
2022-08-29T04:10:13.874Z,6.88
2022-08-29T04:15:20.217Z,9.84
2022-08-29T04:20:26.351Z,8.85
2022-08-29T04:25:36.768Z,9.57
2022-08-29T04:30:38.479Z,10.48
2022-08-29T04:35:44.798Z,9.59
2022-08-29T04:40:51.022Z,9.76
2022-08-29T04:45:57.493Z,9.14
2022-08-29T04:51:03.809Z,9.64
2022-08-29T04:56:10.120Z,8.83
2022-08-29T05:01:16.290Z,10.28
2022-08-29T05:06:22.868Z,10.93
2022-08-29T05:11:28.824Z,9.06
2022-08-29T05:16:35.224Z,9.26
2022-08-29T05:21:41.425Z,10.21
2022-08-29T05:26:48.037Z,12.56
2022-08-29T05:31:54.177Z,13.34
2022-08-29T05:37:00.566Z,11.29
2022-08-29T05:42:06.924Z,12.73
2022-08-29T05:47:13.283Z,11.28
2022-08-29T05:52:19.490Z,10.57
2022-08-29T05:57:26.801Z,10.91
2022-08-29T06:02:33.054Z,9.83
2022-08-29T06:07:39.341Z,10.33
2022-08-29T06:12:45.568Z,12.99
2022-08-29T06:17:51.930Z,13.19
2022-08-29T06:24:24.590Z,14.35
2022-08-29T06:29:30.893Z,15.80
2022-08-29T06:35:14.687Z,16.76
2022-08-29T06:40:21.038Z,20.73
2022-08-29T06:45:27.101Z,14.72
2022-08-29T06:50:33.441Z,15.05
2022-08-29T06:55:39.115Z,17.49
2022-08-29T07:00:49.554Z,15.46
2022-08-29T07:05:51.017Z,17.20
2022-08-29T07:10:57.230Z,18.43
2022-08-29T07:16:03.445Z,17.08
2022-08-29T07:21:09.841Z,18.87
2022-08-29T07:26:16.105Z,17.76
2022-08-29T07:31:22.387Z,18.65
2022-08-29T07:36:28.437Z,17.46
2022-08-29T07:41:34.736Z,9.97
2022-08-29T07:46:40.838Z,21.75
2022-08-29T07:51:47.057Z,14.64
2022-08-29T07:56:53.167Z,14.37
2022-08-29T08:01:59.661Z,15.22
2022-08-29T08:07:05.709Z,16.02
2022-08-29T08:12:11.851Z,11.34
2022-08-29T08:17:18.192Z,11.80
2022-08-29T08:22:24.518Z,9.90
2022-08-29T08:27:30.668Z,10.05
2022-08-29T08:32:36.918Z,7.67
2022-08-29T08:37:43.045Z,4.58
2022-08-29T08:42:49.310Z,5.23
2022-08-29T08:47:55.380Z,5.14
2022-08-29T08:53:01.725Z,4.26
2022-08-29T08:58:07.907Z,3.79
2022-08-29T09:03:14.232Z,4.01
2022-08-29T09:08:20.223Z,4.36
2022-08-29T09:13:26.774Z,4.27
2022-08-29T09:18:32.938Z,3.92
2022-08-29T09:23:38.793Z,3.27
2022-08-29T09:28:45.078Z,5.17
2022-08-29T09:33:51.611Z,4.11
2022-08-29T09:38:57.262Z,2.92
2022-08-29T09:44:03.565Z,4.60
2022-08-29T09:49:09.849Z,2.92
2022-08-29T09:54:17.239Z,2.54
2022-08-29T09:59:23.318Z,3.35
2022-08-29T10:04:29.579Z,3.10
2022-08-29T10:10:01.563Z,2.01
2022-08-29T10:15:07.775Z,3.77
2022-08-29T10:20:13.918Z,3.13
2022-08-29T10:25:20.643Z,2.98
2022-08-29T10:30:26.391Z,3.09
2022-08-29T10:35:32.706Z,2.87
2022-08-29T10:40:38.857Z,3.68
2022-08-29T10:45:44.685Z,3.38
2022-08-29T10:50:50.818Z,4.22
2022-08-29T10:55:57.089Z,2.83
2022-08-29T11:01:06.932Z,3.17
2022-08-29T11:06:09.198Z,2.43
2022-08-29T11:11:15.287Z,4.76
2022-08-29T11:16:21.751Z,2.86
2022-08-29T11:21:28.187Z,3.90
2022-08-29T11:26:35.422Z,2.36
2022-08-29T11:31:41.692Z,3.13
2022-08-29T11:36:47.893Z,2.44
2022-08-29T11:41:58.198Z,3.31
2022-08-29T11:47:00.146Z,2.80
2022-08-29T11:52:06.046Z,2.40
2022-08-29T11:57:12.273Z,2.44
2022-08-29T12:02:18.462Z,4.22
2022-08-29T12:07:24.642Z,2.38
2022-08-29T12:12:30.810Z,3.58
2022-08-29T12:18:00.433Z,2.42
2022-08-29T12:27:49.258Z,2.46
2022-08-29T12:32:55.474Z,3.86
2022-08-29T12:38:03.415Z,2.60
2022-08-29T12:43:07.354Z,2.95
2022-08-29T12:48:13.556Z,3.25
2022-08-29T12:53:19.650Z,2.45
2022-08-29T12:58:25.974Z,1.81
2022-08-29T13:03:32.122Z,2.43
2022-08-29T13:08:38.427Z,2.86
2022-08-29T13:13:44.539Z,2.41
2022-08-29T13:19:09.729Z,4.18
2022-08-29T13:23:56.562Z,2.24
2022-08-29T13:29:03.056Z,3.57
2022-08-29T13:34:09.193Z,3.12
2022-08-29T13:39:15.330Z,1.98
2022-08-29T13:44:21.429Z,2.22
2022-08-29T13:49:27.648Z,2.31
2022-08-29T13:54:33.749Z,2.96
2022-08-29T13:59:40.114Z,3.65
2022-08-29T14:04:46.291Z,5.15
2022-08-29T14:09:52.405Z,3.50
2022-08-29T14:14:58.571Z,3.18
2022-08-29T14:20:04.784Z,3.63
2022-08-29T14:25:10.905Z,2.43
2022-08-29T14:30:17.238Z,2.85
2022-08-29T14:35:27.442Z,3.01
2022-08-29T14:40:29.413Z,3.47
2022-08-29T14:45:36.370Z,3.03
2022-08-29T14:50:43.010Z,1.65
2022-08-29T14:55:49.228Z,2.36
2022-08-29T15:00:55.486Z,1.79
2022-08-29T15:06:01.665Z,2.85
2022-08-29T15:11:07.896Z,5.35
2022-08-29T15:16:14.062Z,2.53
2022-08-29T15:21:20.430Z,1.26
2022-08-29T15:26:26.549Z,2.97
2022-08-29T15:31:33.198Z,2.45
2022-08-29T15:36:38.721Z,1.93
2022-08-29T15:41:45.104Z,2.63
2022-08-29T15:46:51.416Z,3.18
2022-08-29T15:51:57.553Z,1.42
2022-08-29T15:57:03.792Z,0.72
2022-08-29T16:02:10.256Z,1.80
2022-08-29T16:07:16.361Z,1.45
2022-08-29T16:12:22.542Z,3.61
2022-08-29T16:17:28.648Z,1.12
2022-08-29T16:22:34.958Z,1.20
2022-08-29T16:27:41.115Z,1.47
2022-08-29T16:32:47.497Z,2.07
2022-08-29T16:38:03.244Z,1.59
2022-08-29T16:42:59.603Z,1.74
2022-08-29T16:48:15.832Z,1.66
2022-08-29T16:53:11.651Z,1.97
2022-08-29T16:58:17.909Z,1.42
2022-08-29T17:03:24.089Z,2.08
2022-08-29T17:08:30.279Z,1.90
2022-08-29T17:13:36.502Z,2.23
2022-08-29T17:18:42.830Z,3.20
2022-08-29T17:23:49.255Z,2.36
2022-08-29T17:28:55.473Z,2.70
2022-08-29T17:34:02.402Z,3.18
2022-08-29T17:39:08.705Z,2.38
2022-08-29T17:44:15.086Z,2.89
2022-08-29T17:49:21.416Z,2.52
2022-08-29T17:54:27.137Z,3.55
2022-08-29T17:59:33.626Z,1.91
2022-08-29T18:04:40.302Z,1.92
2022-08-29T18:09:46.482Z,3.74
2022-08-29T18:14:52.910Z,1.98
2022-08-29T18:19:59.034Z,2.92
2022-08-29T18:25:05.476Z,4.56
2022-08-29T18:30:11.581Z,2.40
2022-08-29T18:35:17.882Z,2.20
2022-08-29T18:40:24.220Z,2.67
2022-08-29T18:45:30.730Z,2.52
2022-08-29T18:50:36.863Z,4.40
2022-08-29T18:55:48.749Z,2.18
2022-08-29T19:00:49.297Z,2.61
2022-08-29T19:05:55.569Z,2.19
2022-08-29T19:11:01.733Z,2.56
2022-08-29T19:16:08.158Z,2.77
2022-08-29T19:21:14.338Z,2.45
2022-08-29T19:26:20.587Z,3.77
2022-08-29T19:31:26.736Z,4.83
2022-08-29T19:36:32.897Z,3.50
2022-08-29T19:41:39.067Z,2.43
2022-08-29T19:46:49.242Z,3.51
2022-08-29T19:51:50.986Z,3.75
2022-08-29T19:56:57.345Z,2.14
2022-08-29T20:02:03.572Z,4.13
2022-08-29T20:07:09.471Z,4.55
2022-08-29T20:12:15.629Z,3.61
2022-08-29T20:17:22.051Z,3.68
2022-08-29T20:22:28.180Z,3.84
2022-08-29T20:27:34.688Z,3.35
2022-08-29T20:32:40.625Z,2.65
2022-08-29T20:37:47.010Z,2.92
2022-08-29T20:42:55.500Z,3.16
2022-08-29T20:48:01.723Z,3.66
2022-08-29T20:53:07.837Z,3.08
2022-08-29T20:58:14.697Z,3.37
2022-08-29T21:03:21.105Z,5.49
2022-08-29T21:08:27.471Z,4.50
2022-08-29T21:13:33.586Z,4.54
2022-08-29T21:18:39.820Z,3.21
2022-08-29T21:23:46.121Z,3.34
2022-08-29T21:28:52.389Z,2.55
2022-08-29T21:33:58.181Z,4.35
2022-08-29T21:39:04.625Z,2.95
2022-08-29T21:44:10.830Z,4.88
2022-08-29T21:49:17.132Z,4.20
2022-08-29T21:54:23.277Z,3.64
2022-08-29T21:59:29.701Z,4.88
2022-08-29T22:04:35.845Z,4.22
2022-08-29T22:09:42.130Z,2.49
2022-08-29T22:14:48.264Z,2.45
2022-08-29T22:19:54.543Z,2.78
2022-08-29T22:25:00.773Z,3.78
2022-08-29T22:30:07.081Z,3.11
2022-08-29T22:35:13.707Z,3.54
2022-08-29T22:40:19.747Z,4.26
2022-08-29T22:45:26.029Z,3.24
2022-08-29T22:50:32.249Z,4.44
2022-08-29T22:55:38.355Z,2.75
2022-08-29T23:00:44.531Z,2.24
2022-08-29T23:05:50.919Z,3.73
2022-08-29T23:10:57.163Z,4.21
2022-08-29T23:16:03.312Z,2.86
2022-08-29T23:21:09.469Z,2.01
2022-08-29T23:26:15.152Z,2.09
2022-08-29T23:31:21.515Z,3.70
2022-08-29T23:36:27.580Z,2.52
2022-08-29T23:41:33.953Z,3.07
2022-08-29T23:46:40.118Z,2.43
2022-08-29T23:51:46.307Z,4.02
2022-08-29T23:56:52.502Z,3.73
